Terminal Aerodrome Forecast
Issued by NWS

Home | Current Version | Previous Version | Text Only | Print | Product List | Glossary On
Versions: 1 2 3 4 5 6 7 8 9 10 11 12 13 14 15 16 17 18 19 20 21 22 23 24 25 26 27 28 29 30 31 32 33 34 35 36 37 38 39 40 41 42 43 44 45 46
589
FTUS44 KHGX 282323
TAFLBX
TAF
KLBX 282323Z 2900/2924 06006KT P6SM VCSH SCT024 BKN100
      TEMPO 2900/2902 VRB17KT 4SM SHRA BKN035
     FM290200 VRB03KT P6SM BKN120
     FM290900 35003KT P6SM VCSH SCT015 BKN050 PROB30 2911/2915 SHRA
     FM291500 04007KT P6SM VCTS BKN025CB OVC070
      TEMPO 2915/2919 TSRA
     FM291900 06007KT P6SM VCSH SCT025 BKN035=

USA.gov is the U.S. government's official web portal to all federal, state and local government web resources and services.